createdAt,value
2019-04-09T00:00:22.452Z,92.40
2019-04-09T00:01:04.389Z,92.40
2019-04-09T00:01:59.371Z,92.40
2019-04-09T00:02:38.632Z,92.20
2019-04-09T00:03:15.484Z,92.20
2019-04-09T00:03:50.210Z,92.10
2019-04-09T00:04:25.309Z,92.10
2019-04-09T00:05:00.009Z,92.10
2019-04-09T00:05:34.604Z,92.00
2019-04-09T00:06:09.155Z,92.10
2019-04-09T00:06:48.811Z,92.10
2019-04-09T00:07:23.158Z,92.10
2019-04-09T00:08:03.165Z,92.10
2019-04-09T00:08:34.223Z,92.00
2019-04-09T00:09:09.030Z,92.10
2019-04-09T00:09:43.620Z,92.10
2019-04-09T00:10:18.620Z,92.20
2019-04-09T00:10:53.326Z,92.20
2019-04-09T00:11:28.339Z,92.10
2019-04-09T00:12:03.037Z,92.10
2019-04-09T00:12:38.001Z,92.00
2019-04-09T00:13:13.563Z,91.90
2019-04-09T00:13:48.265Z,91.90
2019-04-09T00:14:22.778Z,91.80
2019-04-09T00:14:57.315Z,91.80
2019-04-09T00:15:31.896Z,91.90
2019-04-09T00:16:06.920Z,91.90
2019-04-09T00:16:41.760Z,91.90
2019-04-09T00:17:16.373Z,92.00
2019-04-09T00:17:51.021Z,91.80
2019-04-09T00:18:25.868Z,91.80
2019-04-09T00:19:00.565Z,91.90
2019-04-09T00:19:35.225Z,92.00
2019-04-09T00:20:10.384Z,91.90
2019-04-09T00:20:45.072Z,91.90
2019-04-09T00:21:19.724Z,92.00
2019-04-09T00:21:54.276Z,92.00
2019-04-09T00:22:28.954Z,92.00
2019-04-09T00:23:03.913Z,91.90
2019-04-09T00:23:38.595Z,91.80
2019-04-09T00:24:13.308Z,91.80
2019-04-09T00:24:47.905Z,91.80
2019-04-09T00:25:22.567Z,91.80
2019-04-09T00:25:57.466Z,92.00
2019-04-09T00:26:44.043Z,91.90
2019-04-09T00:27:08.909Z,91.90
2019-04-09T00:27:43.521Z,91.90
2019-04-09T00:28:18.046Z,91.90
2019-04-09T00:28:52.661Z,91.80
2019-04-09T00:29:27.263Z,91.80
2019-04-09T00:30:01.872Z,91.80
2019-04-09T00:30:38.221Z,91.80
2019-04-09T00:31:12.911Z,91.80
2019-04-09T00:31:47.569Z,91.60
2019-04-09T00:32:22.142Z,91.60
2019-04-09T00:32:57.236Z,91.70
2019-04-09T00:33:32.470Z,91.70
2019-04-09T00:34:07.290Z,91.90
2019-04-09T00:34:42.265Z,91.70
2019-04-09T00:35:16.924Z,91.80
2019-04-09T00:35:51.579Z,91.90
2019-04-09T00:36:26.196Z,91.90
2019-04-09T00:37:06.839Z,91.80
2019-04-09T00:37:42.083Z,91.80
2019-04-09T00:38:16.676Z,92.00
2019-04-09T00:38:51.771Z,92.00
2019-04-09T00:39:26.476Z,92.00
2019-04-09T00:40:01.728Z,92.00
2019-04-09T00:40:36.453Z,92.00
2019-04-09T00:41:11.201Z,92.40
2019-04-09T00:41:46.300Z,92.10
2019-04-09T00:42:20.898Z,92.10
2019-04-09T00:42:56.196Z,92.10
2019-04-09T00:43:30.933Z,92.00
2019-04-09T00:44:06.168Z,92.10
2019-04-09T00:44:41.271Z,92.00
2019-04-09T00:45:16.166Z,91.80
2019-04-09T00:45:51.034Z,91.90
2019-04-09T00:46:25.703Z,91.90
2019-04-09T00:47:00.226Z,92.00
2019-04-09T00:47:34.954Z,91.90
2019-04-09T00:48:09.501Z,91.90
2019-04-09T00:48:44.440Z,91.90
2019-04-09T00:49:19.210Z,91.80
2019-04-09T00:49:54.317Z,91.80
2019-04-09T00:50:28.992Z,91.80
2019-04-09T00:51:04.162Z,91.90
2019-04-09T00:51:39.799Z,91.80
2019-04-09T00:52:14.484Z,91.80
2019-04-09T00:52:49.081Z,91.80
2019-04-09T00:53:24.113Z,91.80
2019-04-09T00:53:58.729Z,91.70
2019-04-09T00:54:33.861Z,91.80
2019-04-09T00:55:08.628Z,91.90
2019-04-09T00:55:43.712Z,91.90
2019-04-09T00:56:18.428Z,91.90
2019-04-09T00:56:59.108Z,91.90
2019-04-09T00:57:29.264Z,92.00
2019-04-09T00:58:03.809Z,91.90
2019-04-09T00:58:38.788Z,91.90
2019-04-09T00:59:13.431Z,91.80
2019-04-09T00:59:48.634Z,91.60
2019-04-09T01:00:25.092Z,91.60
2019-04-09T01:01:01.548Z,91.60
2019-04-09T01:01:36.610Z,91.60
2019-04-09T01:02:11.276Z,91.50
2019-04-09T01:02:46.002Z,91.60
2019-04-09T01:03:21.755Z,91.60
2019-04-09T01:03:57.182Z,91.70
2019-04-09T01:04:32.377Z,91.70
2019-04-09T01:05:07.699Z,91.70
2019-04-09T01:05:42.258Z,91.80
2019-04-09T01:06:16.844Z,91.90
2019-04-09T01:06:51.940Z,91.90
2019-04-09T01:07:26.657Z,91.80
2019-04-09T01:08:01.254Z,91.70
2019-04-09T01:08:35.887Z,91.80
2019-04-09T01:09:12.569Z,91.80
2019-04-09T01:09:47.634Z,91.80
2019-04-09T01:10:22.377Z,91.70
2019-04-09T01:10:57.028Z,91.70
2019-04-09T01:11:31.793Z,91.60
2019-04-09T01:12:14.464Z,91.70
2019-04-09T01:12:51.918Z,91.70
2019-04-09T01:13:25.318Z,91.70
2019-04-09T01:13:59.929Z,91.70
2019-04-09T01:14:34.475Z,91.60
2019-04-09T01:15:09.409Z,91.70
2019-04-09T01:15:44.808Z,91.70
2019-04-09T01:16:19.919Z,91.60
2019-04-09T01:16:54.551Z,91.70
2019-04-09T01:17:29.705Z,91.70
2019-04-09T01:18:04.928Z,91.70
2019-04-09T01:18:39.623Z,91.60
2019-04-09T01:19:17.081Z,91.60
2019-04-09T01:19:50.771Z,91.60
2019-04-09T01:20:25.430Z,91.70
2019-04-09T01:21:00.582Z,91.70
2019-04-09T01:21:35.380Z,91.80
2019-04-09T01:22:10.304Z,91.70
2019-04-09T01:22:45.502Z,91.80
2019-04-09T01:23:20.219Z,91.80
2019-04-09T01:23:55.409Z,91.90
2019-04-09T01:24:35.607Z,92.20
2019-04-09T01:25:14.568Z,91.90
2019-04-09T01:25:50.933Z,91.90
2019-04-09T01:26:30.757Z,91.90
2019-04-09T01:27:16.470Z,91.90
2019-04-09T01:27:51.326Z,91.80
2019-04-09T01:28:30.864Z,91.80
2019-04-09T01:29:07.529Z,91.90
2019-04-09T01:29:44.839Z,91.90
2019-04-09T01:30:30.128Z,92.00
2019-04-09T01:31:06.330Z,91.90
2019-04-09T01:31:46.191Z,91.90
2019-04-09T01:32:26.977Z,91.90
2019-04-09T01:33:04.998Z,91.90
2019-04-09T01:34:03.530Z,91.90
2019-04-09T01:34:55.138Z,91.90
2019-04-09T01:35:31.308Z,91.70
2019-04-09T01:36:07.593Z,91.70
2019-04-09T01:36:47.803Z,91.70
2019-04-09T01:37:24.542Z,91.70
2019-04-09T01:38:18.022Z,91.70
2019-04-09T01:39:00.924Z,91.80
2019-04-09T01:39:38.390Z,91.80
2019-04-09T01:40:17.232Z,91.80
2019-04-09T01:40:55.209Z,91.80
2019-04-09T01:41:31.345Z,91.80
2019-04-09T01:42:23.735Z,91.70
2019-04-09T01:43:00.109Z,91.80
2019-04-09T01:43:54.673Z,91.90
2019-04-09T01:44:30.872Z,91.90
2019-04-09T01:45:17.175Z,92.00
2019-04-09T01:45:59.893Z,92.00
2019-04-09T01:46:49.222Z,92.00
2019-04-09T01:47:31.460Z,92.00
2019-04-09T01:48:13.752Z,91.90
2019-04-09T01:48:50.407Z,91.90
2019-04-09T01:49:29.994Z,91.80
2019-04-09T01:50:14.960Z,91.70
2019-04-09T01:50:53.882Z,91.70
2019-04-09T01:51:36.157Z,91.80
2019-04-09T01:52:24.723Z,91.90
2019-04-09T01:53:18.014Z,91.90
2019-04-09T01:53:54.773Z,91.90
2019-04-09T01:54:34.054Z,91.80
2019-04-09T01:55:13.145Z,91.80
2019-04-09T01:56:07.273Z,91.90
2019-04-09T01:56:52.367Z,91.80
2019-04-09T01:57:33.276Z,91.80
2019-04-09T01:58:25.895Z,91.60
2019-04-09T01:59:04.790Z,91.60
2019-04-09T01:59:44.878Z,91.60
2019-04-09T02:00:34.111Z,91.70
2019-04-09T02:01:19.711Z,91.70
2019-04-09T02:02:13.190Z,91.70
2019-04-09T02:03:01.048Z,91.70
2019-04-09T02:03:53.915Z,91.60
2019-04-09T02:04:42.376Z,91.50
2019-04-09T02:05:33.780Z,91.40
2019-04-09T02:06:12.742Z,91.40
2019-04-09T02:06:54.540Z,91.60
2019-04-09T02:07:52.416Z,91.60
2019-04-09T02:08:32.421Z,91.60
2019-04-09T02:09:13.430Z,91.70
2019-04-09T02:09:51.974Z,91.60
2019-04-09T02:10:37.539Z,91.60
2019-04-09T02:11:16.522Z,91.70
2019-04-09T02:11:53.405Z,91.60
2019-04-09T02:12:32.958Z,91.70
2019-04-09T02:13:28.554Z,91.70
2019-04-09T02:14:11.472Z,91.70
2019-04-09T02:15:04.907Z,91.80
2019-04-09T02:15:41.255Z,91.80
2019-04-09T02:16:26.732Z,91.90
2019-04-09T02:17:19.532Z,92.00
2019-04-09T02:17:59.438Z,92.00
2019-04-09T02:18:38.407Z,92.00
2019-04-09T02:19:14.605Z,92.00
2019-04-09T02:19:50.764Z,91.80
2019-04-09T02:20:29.480Z,91.80
2019-04-09T02:21:20.248Z,91.80
2019-04-09T02:22:13.744Z,91.60
2019-04-09T02:22:58.937Z,91.80
2019-04-09T02:23:44.720Z,91.70
2019-04-09T02:24:20.932Z,91.70
2019-04-09T02:24:57.107Z,91.60
2019-04-09T02:25:33.343Z,91.60
2019-04-09T02:26:10.427Z,91.70
2019-04-09T02:26:51.134Z,91.50
2019-04-09T02:27:38.469Z,91.50
2019-04-09T02:28:20.186Z,91.60
2019-04-09T02:28:56.426Z,91.60
2019-04-09T02:29:33.235Z,91.60
2019-04-09T02:30:28.914Z,91.60
2019-04-09T02:31:14.759Z,91.70
2019-04-09T02:32:07.161Z,91.60
2019-04-09T02:32:56.327Z,91.90
2019-04-09T02:33:49.824Z,91.80
2019-04-09T02:34:32.026Z,91.70
2019-04-09T02:35:08.417Z,91.70
2019-04-09T02:35:45.404Z,91.70
2019-04-09T02:36:38.845Z,91.70
2019-04-09T02:37:17.672Z,91.60
2019-04-09T02:38:00.129Z,91.60
2019-04-09T02:38:46.021Z,91.70
2019-04-09T02:39:22.325Z,92.00
2019-04-09T02:40:04.291Z,91.60
2019-04-09T02:40:52.549Z,91.60
2019-04-09T02:41:31.750Z,91.60
2019-04-09T02:42:08.245Z,91.50
2019-04-09T02:42:45.772Z,91.50
2019-04-09T02:43:37.985Z,91.50
2019-04-09T02:44:30.948Z,91.50
2019-04-09T02:45:09.363Z,91.40
2019-04-09T02:45:45.539Z,91.40
2019-04-09T02:46:34.304Z,91.40
2019-04-09T02:47:16.541Z,91.50
2019-04-09T02:48:09.254Z,91.50
2019-04-09T02:48:45.895Z,91.40
2019-04-09T02:49:37.367Z,91.40
2019-04-09T02:50:13.645Z,91.30
2019-04-09T02:50:55.565Z,91.40
2019-04-09T02:51:34.690Z,91.50
2019-04-09T02:52:11.346Z,91.40
2019-04-09T02:53:02.852Z,91.50
2019-04-09T02:53:44.729Z,91.50
2019-04-09T02:54:21.026Z,91.50
2019-04-09T02:55:12.094Z,91.60
2019-04-09T02:56:06.397Z,91.80
2019-04-09T02:56:51.300Z,91.70
2019-04-09T02:57:47.196Z,91.70
2019-04-09T02:58:14.581Z,91.70
2019-04-09T02:59:07.581Z,91.70
2019-04-09T02:59:52.860Z,91.70
2019-04-09T03:00:30.100Z,91.70
2019-04-09T03:01:06.724Z,91.80
2019-04-09T03:01:42.979Z,91.90
2019-04-09T03:02:19.504Z,92.00
2019-04-09T03:03:01.794Z,92.00
2019-04-09T03:03:48.821Z,92.20
2019-04-09T03:04:27.629Z,92.00
2019-04-09T03:05:15.734Z,91.80
2019-04-09T03:06:01.224Z,91.90
2019-04-09T03:06:53.710Z,91.90
2019-04-09T03:07:32.737Z,92.00
2019-04-09T03:08:21.270Z,91.90
2019-04-09T03:09:13.801Z,91.90
2019-04-09T03:10:02.025Z,92.00
2019-04-09T03:10:44.763Z,92.00
2019-04-09T03:11:29.962Z,92.00
2019-04-09T03:12:06.882Z,91.80
2019-04-09T03:12:46.145Z,91.80
2019-04-09T03:13:41.106Z,91.80
2019-04-09T03:14:34.754Z,91.90
2019-04-09T03:15:29.800Z,92.30
2019-04-09T03:16:18.778Z,92.00
2019-04-09T03:17:01.349Z,92.10
2019-04-09T03:17:37.559Z,92.10
2019-04-09T03:18:13.786Z,92.00
2019-04-09T03:19:06.659Z,92.00
2019-04-09T03:19:51.784Z,91.90
2019-04-09T03:20:45.073Z,91.90
2019-04-09T03:21:21.752Z,92.00
2019-04-09T03:22:13.687Z,91.80
2019-04-09T03:23:02.566Z,91.70
2019-04-09T03:23:38.823Z,91.70
2019-04-09T03:24:33.184Z,91.70
2019-04-09T03:25:19.842Z,91.70
2019-04-09T03:25:57.163Z,91.80
2019-04-09T03:26:34.589Z,91.80
2019-04-09T03:27:11.751Z,91.80
2019-04-09T03:28:08.205Z,91.80
2019-04-09T03:28:42.806Z,91.80
2019-04-09T03:29:27.871Z,91.90
2019-04-09T03:30:04.062Z,92.20
2019-04-09T03:30:46.692Z,91.80
2019-04-09T03:31:27.543Z,91.60
2019-04-09T03:32:23.297Z,91.60
2019-04-09T03:33:02.387Z,91.50
2019-04-09T03:33:38.871Z,91.50
2019-04-09T03:34:27.262Z,91.80
2019-04-09T03:35:05.036Z,91.50
2019-04-09T03:35:42.281Z,91.60
2019-04-09T03:36:18.948Z,91.70
2019-04-09T03:37:04.182Z,91.70
2019-04-09T03:37:59.601Z,91.80
2019-04-09T03:38:44.961Z,91.80
2019-04-09T03:39:24.307Z,91.70
2019-04-09T03:40:00.728Z,91.70
2019-04-09T03:40:41.408Z,91.60
2019-04-09T03:41:34.776Z,91.50
2019-04-09T03:42:17.182Z,91.50
2019-04-09T03:42:56.130Z,91.50
2019-04-09T03:43:32.367Z,91.40
2019-04-09T03:44:11.468Z,91.40
2019-04-09T03:44:53.887Z,91.40
2019-04-09T03:45:35.958Z,91.50
2019-04-09T03:46:15.808Z,91.60
2019-04-09T03:47:09.526Z,91.60
2019-04-09T03:47:48.817Z,91.70
2019-04-09T03:48:27.913Z,91.80
2019-04-09T03:49:04.481Z,91.60
2019-04-09T03:49:56.718Z,91.60
2019-04-09T03:50:39.948Z,91.50
2019-04-09T03:51:29.104Z,91.50
2019-04-09T03:52:22.861Z,91.50
2019-04-09T03:53:01.951Z,91.50
2019-04-09T03:53:56.274Z,91.60
2019-04-09T03:54:32.950Z,91.50
2019-04-09T03:55:24.554Z,91.50
2019-04-09T03:56:18.075Z,91.50
2019-04-09T03:56:54.938Z,91.60
2019-04-09T03:57:32.102Z,91.60
2019-04-09T03:58:16.767Z,91.70
2019-04-09T03:59:01.295Z,91.70
2019-04-09T03:59:52.541Z,91.90
2019-04-09T04:00:43.578Z,91.90
2019-04-09T04:01:25.624Z,91.90
2019-04-09T04:02:06.812Z,91.90
2019-04-09T04:02:43.517Z,92.00
2019-04-09T04:03:29.690Z,92.10
2019-04-09T04:04:07.455Z,92.10
2019-04-09T04:04:44.484Z,92.20
2019-04-09T04:05:37.676Z,92.00
2019-04-09T04:06:19.415Z,92.10
2019-04-09T04:07:12.124Z,91.90
2019-04-09T04:07:58.208Z,92.10
2019-04-09T04:08:40.287Z,91.90
2019-04-09T04:09:19.487Z,91.90
2019-04-09T04:09:56.135Z,91.80
2019-04-09T04:10:35.906Z,91.90
2019-04-09T04:11:20.975Z,92.00
2019-04-09T04:11:57.240Z,92.00
2019-04-09T04:12:33.500Z,92.00
2019-04-09T04:13:11.241Z,92.00
2019-04-09T04:14:04.192Z,92.00
2019-04-09T04:14:50.253Z,92.00
2019-04-09T04:15:26.591Z,92.10
2019-04-09T04:16:08.647Z,92.00
2019-04-09T04:16:53.723Z,91.90
2019-04-09T04:17:36.174Z,92.00
2019-04-09T04:18:29.864Z,92.00
2019-04-09T04:19:08.903Z,92.00
2019-04-09T04:19:48.227Z,92.10
2019-04-09T04:21:17.439Z,92.10
2019-04-09T04:22:46.514Z,92.10
2019-04-09T04:23:29.816Z,92.00
2019-04-09T04:24:22.734Z,92.00
2019-04-09T04:25:15.147Z,91.80
2019-04-09T04:26:07.372Z,91.80
2019-04-09T04:26:56.715Z,91.80
2019-04-09T04:27:39.032Z,91.90
2019-04-09T04:28:25.979Z,91.90
2019-04-09T04:28:57.187Z,92.00
2019-04-09T04:29:36.247Z,91.90
2019-04-09T04:30:27.843Z,92.10
2019-04-09T04:31:21.495Z,92.00
2019-04-09T04:32:00.681Z,92.10
2019-04-09T04:32:45.912Z,92.00
2019-04-09T04:33:31.460Z,91.90
2019-04-09T04:34:22.974Z,91.90
2019-04-09T04:34:59.627Z,92.00
2019-04-09T04:35:52.125Z,91.90
2019-04-09T04:36:35.073Z,91.80
2019-04-09T04:37:11.327Z,91.80
2019-04-09T04:37:50.115Z,91.90
2019-04-09T04:38:39.076Z,92.00
2019-04-09T04:39:27.375Z,92.00
2019-04-09T04:40:18.595Z,92.00
2019-04-09T04:41:03.699Z,92.00
2019-04-09T04:41:52.554Z,92.00
2019-04-09T04:42:44.477Z,92.00
2019-04-09T04:43:36.601Z,92.00
2019-04-09T04:44:12.746Z,92.00
2019-04-09T04:44:57.939Z,92.10
2019-04-09T04:45:34.072Z,92.20
2019-04-09T04:46:13.160Z,92.10
2019-04-09T04:46:52.766Z,92.10
2019-04-09T04:47:34.844Z,92.10
2019-04-09T04:48:11.199Z,92.20
2019-04-09T04:48:48.389Z,92.20
2019-04-09T04:49:24.985Z,92.20
2019-04-09T04:50:13.490Z,92.30
2019-04-09T04:51:06.351Z,92.30
2019-04-09T04:51:57.010Z,92.10
2019-04-09T04:52:44.643Z,91.90
2019-04-09T04:53:37.315Z,91.80
2019-04-09T04:54:16.269Z,91.70
2019-04-09T04:54:58.757Z,91.80
2019-04-09T04:55:57.343Z,91.70
2019-04-09T04:56:42.471Z,91.70
2019-04-09T04:57:25.065Z,91.60
2019-04-09T04:58:02.113Z,91.70
2019-04-09T04:58:45.449Z,91.70
2019-04-09T04:59:20.067Z,91.70
2019-04-09T05:00:02.078Z,91.70
2019-04-09T05:00:53.408Z,92.00
2019-04-09T05:01:46.517Z,91.80
2019-04-09T05:02:22.891Z,91.70
2019-04-09T05:03:14.388Z,91.70
2019-04-09T05:04:06.861Z,91.80
2019-04-09T05:04:44.074Z,91.70
2019-04-09T05:05:20.301Z,91.80
2019-04-09T05:06:08.212Z,91.80
2019-04-09T05:06:57.067Z,91.80
2019-04-09T05:07:46.840Z,91.80
2019-04-09T05:08:23.709Z,91.70
2019-04-09T05:09:16.638Z,91.60
2019-04-09T05:09:53.091Z,91.60
2019-04-09T05:10:32.200Z,91.70
2019-04-09T05:11:17.152Z,91.70
2019-04-09T05:12:05.543Z,91.70
2019-04-09T05:12:47.515Z,91.80
2019-04-09T05:13:36.550Z,91.80
2019-04-09T05:14:29.713Z,91.80
2019-04-09T05:15:25.651Z,91.90
2019-04-09T05:16:04.612Z,92.00
2019-04-09T05:16:41.067Z,92.00
2019-04-09T05:17:29.387Z,92.10
2019-04-09T05:18:05.693Z,91.90
2019-04-09T05:19:00.022Z,91.90
2019-04-09T05:19:55.003Z,91.90
2019-04-09T05:20:47.679Z,91.90
2019-04-09T05:21:39.971Z,92.00
2019-04-09T05:22:30.030Z,92.10
2019-04-09T05:23:22.438Z,92.10
2019-04-09T05:23:58.566Z,91.90
2019-04-09T05:24:51.039Z,91.90
2019-04-09T05:25:39.730Z,91.90
2019-04-09T05:26:24.691Z,91.90
2019-04-09T05:27:04.533Z,92.00
2019-04-09T05:27:44.623Z,92.00
2019-04-09T05:28:20.933Z,92.00
2019-04-09T05:29:04.062Z,92.10
2019-04-09T05:29:40.364Z,91.90
2019-04-09T05:30:16.624Z,91.70
2019-04-09T05:30:52.825Z,91.70
2019-04-09T05:31:32.717Z,91.70
2019-04-09T05:32:23.564Z,91.70
2019-04-09T05:33:01.595Z,91.70
2019-04-09T05:33:53.994Z,91.70
2019-04-09T05:34:36.268Z,91.70
2019-04-09T05:35:18.963Z,91.80
2019-04-09T05:35:55.769Z,91.80
2019-04-09T05:36:50.595Z,92.20
2019-04-09T05:37:27.008Z,91.80
2019-04-09T05:38:12.237Z,91.60
2019-04-09T05:38:49.436Z,91.50
2019-04-09T05:39:32.837Z,91.50
2019-04-09T05:40:25.154Z,91.50
2019-04-09T05:41:19.767Z,91.60
2019-04-09T05:41:56.396Z,91.50
2019-04-09T05:42:35.554Z,91.50
2019-04-09T05:43:14.420Z,91.50
2019-04-09T05:44:02.905Z,91.50
2019-04-09T05:44:55.521Z,91.40
2019-04-09T05:45:31.982Z,91.40
2019-04-09T05:46:08.190Z,91.20
2019-04-09T05:46:53.068Z,91.10
2019-04-09T05:47:38.977Z,91.10
2019-04-09T05:48:15.228Z,91.30
2019-04-09T05:48:51.358Z,91.40
2019-04-09T05:49:30.061Z,91.40
2019-04-09T05:50:11.010Z,91.40
2019-04-09T05:51:04.980Z,91.50
2019-04-09T05:51:57.678Z,91.40
2019-04-09T05:52:33.847Z,91.20
2019-04-09T05:53:09.976Z,91.20
2019-04-09T05:53:53.204Z,91.30
2019-04-09T05:54:29.545Z,91.30
2019-04-09T05:55:09.892Z,91.40
2019-04-09T05:55:46.022Z,91.40
2019-04-09T05:56:25.651Z,91.20
2019-04-09T05:57:04.737Z,91.00
2019-04-09T05:57:42.308Z,91.00
2019-04-09T05:58:25.545Z,91.00
2019-04-09T05:59:17.244Z,91.00
2019-04-09T05:59:53.820Z,91.00
2019-04-09T06:00:32.716Z,91.10
2019-04-09T06:01:11.492Z,91.10
2019-04-09T06:01:51.228Z,91.10
2019-04-09T06:02:27.676Z,91.10
2019-04-09T06:03:06.729Z,91.00
2019-04-09T06:03:57.790Z,91.00
2019-04-09T06:04:40.217Z,91.00
2019-04-09T06:05:16.516Z,90.80
2019-04-09T06:05:53.311Z,91.00
2019-04-09T06:06:29.646Z,90.90
2019-04-09T06:07:06.909Z,90.90
2019-04-09T06:07:45.610Z,91.00
2019-04-09T06:08:26.061Z,90.80
2019-04-09T06:09:18.786Z,90.70
2019-04-09T06:09:53.475Z,90.70
2019-04-09T06:10:28.215Z,90.70
2019-04-09T06:11:03.340Z,90.80
2019-04-09T06:11:38.067Z,90.70
2019-04-09T06:12:14.233Z,90.80
2019-04-09T06:12:49.109Z,90.90
2019-04-09T06:13:23.860Z,90.80
2019-04-09T06:13:58.354Z,90.80
2019-04-09T06:14:32.859Z,90.80
2019-04-09T06:15:08.548Z,90.80
2019-04-09T06:15:43.411Z,90.80
2019-04-09T06:16:18.255Z,90.70
2019-04-09T06:16:52.892Z,90.80
2019-04-09T06:17:27.467Z,90.80
2019-04-09T06:18:02.139Z,90.80
2019-04-09T06:18:36.681Z,90.80
2019-04-09T06:19:11.245Z,90.70
2019-04-09T06:19:46.358Z,90.80
2019-04-09T06:20:21.127Z,90.80
2019-04-09T06:20:55.645Z,90.60
2019-04-09T06:21:33.057Z,90.90
2019-04-09T06:22:06.407Z,90.70
2019-04-09T06:22:41.383Z,90.60
2019-04-09T06:23:16.155Z,90.60
2019-04-09T06:23:50.754Z,90.40
2019-04-09T06:24:25.374Z,90.40
2019-04-09T06:24:59.863Z,90.30
2019-04-09T06:25:34.899Z,90.20
2019-04-09T06:26:10.904Z,90.20
2019-04-09T06:26:46.559Z,90.20
2019-04-09T06:27:21.103Z,90.30
2019-04-09T06:27:55.682Z,90.40
2019-04-09T06:28:30.391Z,90.30
2019-04-09T06:29:15.116Z,90.20
2019-04-09T06:29:41.175Z,90.00
2019-04-09T06:30:15.907Z,90.20
2019-04-09T06:30:50.497Z,89.90
2019-04-09T06:31:26.337Z,90.20
2019-04-09T06:32:02.745Z,90.20
2019-04-09T06:32:47.833Z,90.10
2019-04-09T06:33:28.086Z,90.10
2019-04-09T06:34:17.770Z,90.20
2019-04-09T06:34:54.461Z,90.20
2019-04-09T06:35:36.396Z,90.10
2019-04-09T06:36:15.488Z,90.10
2019-04-09T06:37:08.311Z,90.00
2019-04-09T06:37:48.327Z,89.70
2019-04-09T06:38:25.540Z,89.60
2019-04-09T06:39:04.918Z,89.60
2019-04-09T06:39:41.071Z,89.80
2019-04-09T06:40:34.616Z,89.90
2019-04-09T06:41:23.841Z,90.00
2019-04-09T06:42:02.984Z,90.00
2019-04-09T06:42:42.777Z,90.10
2019-04-09T06:43:21.989Z,90.20
2019-04-09T06:44:01.012Z,90.10
2019-04-09T06:44:53.585Z,90.10
2019-04-09T06:45:30.048Z,90.00
2019-04-09T06:46:15.661Z,89.40
2019-04-09T06:46:55.934Z,89.20
2019-04-09T06:47:32.912Z,89.90
2019-04-09T06:48:25.748Z,89.20
2019-04-09T06:49:20.177Z,89.30
2019-04-09T06:49:56.940Z,89.30
2019-04-09T06:50:33.337Z,89.50
2019-04-09T06:51:09.546Z,89.50
2019-04-09T06:51:51.091Z,89.40
2019-04-09T06:52:26.475Z,89.20
2019-04-09T06:53:11.455Z,88.90
2019-04-09T06:53:59.643Z,88.80
2019-04-09T06:54:57.787Z,88.90
2019-04-09T06:55:31.182Z,88.90
2019-04-09T06:56:07.445Z,88.90
2019-04-09T06:56:44.059Z,88.70
2019-04-09T06:57:23.496Z,88.70
2019-04-09T06:58:14.618Z,88.60
2019-04-09T06:58:59.712Z,88.60
2019-04-09T06:59:51.088Z,88.60
2019-04-09T07:00:28.418Z,88.70
2019-04-09T07:01:20.472Z,88.40
2019-04-09T07:01:57.419Z,88.10
2019-04-09T07:02:51.108Z,88.50
2019-04-09T07:03:37.091Z,88.00
2019-04-09T07:04:16.230Z,88.20
2019-04-09T07:04:55.187Z,88.50
2019-04-09T07:05:32.258Z,88.60
2019-04-09T07:06:14.815Z,88.50
2019-04-09T07:06:53.961Z,88.40
2019-04-09T07:07:30.206Z,88.10
2019-04-09T07:08:22.637Z,88.10
2019-04-09T07:08:59.764Z,88.10
2019-04-09T07:09:51.681Z,88.10
2019-04-09T07:10:28.067Z,87.70
2019-04-09T07:11:21.850Z,87.70
2019-04-09T07:12:05.167Z,87.60
2019-04-09T07:12:58.270Z,87.90
2019-04-09T07:13:51.625Z,87.80
2019-04-09T07:14:44.164Z,87.90
2019-04-09T07:15:41.659Z,87.70
2019-04-09T07:16:17.481Z,87.80
2019-04-09T07:17:09.915Z,87.80
2019-04-09T07:17:46.808Z,87.70
2019-04-09T07:18:29.308Z,87.40
2019-04-09T07:19:11.269Z,87.40
2019-04-09T07:20:03.997Z,88.20
2019-04-09T07:20:41.175Z,87.40
2019-04-09T07:21:17.508Z,87.60
2019-04-09T07:22:10.937Z,87.30
2019-04-09T07:22:53.440Z,87.40
2019-04-09T07:23:39.658Z,87.20
2019-04-09T07:24:25.013Z,87.20
2019-04-09T07:25:19.463Z,87.20
2019-04-09T07:26:05.297Z,86.90
2019-04-09T07:26:59.396Z,86.50
2019-04-09T07:27:35.763Z,86.60
2019-04-09T07:28:15.138Z,86.80
2019-04-09T07:28:59.536Z,86.90
2019-04-09T07:29:46.702Z,86.90
2019-04-09T07:30:14.178Z,86.90
2019-04-09T07:30:56.015Z,87.00
2019-04-09T07:31:35.140Z,87.50
2019-04-09T07:32:13.058Z,87.70
2019-04-09T07:33:11.254Z,86.80
2019-04-09T07:34:01.412Z,86.50
2019-04-09T07:34:52.206Z,86.50
2019-04-09T07:35:44.391Z,86.20
2019-04-09T07:36:26.836Z,85.90
2019-04-09T07:37:15.769Z,85.90
2019-04-09T07:38:01.422Z,85.70
2019-04-09T07:38:38.536Z,85.50
2019-04-09T07:39:31.390Z,85.00
2019-04-09T07:40:21.920Z,85.20
2019-04-09T07:41:16.086Z,84.90
2019-04-09T07:42:10.825Z,85.00
2019-04-09T07:42:55.415Z,85.50
2019-04-09T07:43:34.893Z,84.80
2019-04-09T07:44:31.023Z,84.80
2019-04-09T07:45:24.369Z,84.70
2019-04-09T07:46:17.510Z,84.60
2019-04-09T07:47:02.906Z,84.20
2019-04-09T07:47:45.953Z,84.30
2019-04-09T07:48:38.572Z,84.40
2019-04-09T07:49:30.100Z,84.40
2019-04-09T07:50:24.359Z,84.30
2019-04-09T07:51:03.311Z,83.90
2019-04-09T07:51:48.200Z,83.60
2019-04-09T07:52:30.261Z,83.50
2019-04-09T07:53:09.616Z,83.20
2019-04-09T07:54:04.892Z,83.30
2019-04-09T07:54:45.968Z,83.30
2019-04-09T07:55:27.134Z,83.60
2019-04-09T07:56:19.708Z,83.80
2019-04-09T07:57:07.678Z,84.00
2019-04-09T07:57:44.255Z,84.10
2019-04-09T07:58:41.672Z,84.00
2019-04-09T07:59:21.351Z,83.70
2019-04-09T08:00:04.824Z,83.90
2019-04-09T08:00:44.216Z,84.10
2019-04-09T08:01:19.650Z,84.10
2019-04-09T08:02:04.460Z,84.20
2019-04-09T08:02:46.464Z,84.20
2019-04-09T08:03:28.745Z,83.80
2019-04-09T08:04:13.444Z,83.90
2019-04-09T08:04:49.877Z,83.80
2019-04-09T08:05:32.045Z,84.40
2019-04-09T08:06:24.871Z,83.90
2019-04-09T08:07:22.305Z,83.90
2019-04-09T08:08:02.349Z,84.00
2019-04-09T08:08:42.341Z,84.40
2019-04-09T08:09:24.793Z,84.30
2019-04-09T08:10:06.848Z,84.20
2019-04-09T08:10:43.207Z,83.60
2019-04-09T08:11:36.052Z,83.40
2019-04-09T08:12:31.237Z,83.60
2019-04-09T08:13:07.545Z,83.30
2019-04-09T08:14:00.037Z,82.90
2019-04-09T08:14:49.362Z,82.70
2019-04-09T08:15:38.954Z,82.30
2019-04-09T08:16:32.017Z,81.70
2019-04-09T08:17:11.552Z,81.80
2019-04-09T08:18:02.973Z,81.70
2019-04-09T08:18:33.497Z,81.50
2019-04-09T08:19:26.040Z,81.50
2019-04-09T08:20:27.324Z,80.70
2019-04-09T08:21:01.101Z,80.40
2019-04-09T08:21:38.884Z,80.70
2019-04-09T08:22:29.097Z,80.60
2019-04-09T08:23:09.654Z,80.20
2019-04-09T08:23:52.261Z,80.00
2019-04-09T08:24:45.898Z,79.90
2019-04-09T08:25:29.779Z,79.70
2019-04-09T08:26:12.662Z,79.20
2019-04-09T08:26:51.652Z,78.90
2019-04-09T08:27:27.891Z,79.00
2019-04-09T08:28:21.946Z,79.00
2019-04-09T08:29:00.939Z,79.10
2019-04-09T08:29:42.855Z,79.40
2019-04-09T08:30:40.674Z,79.40
2019-04-09T08:31:17.146Z,79.40
2019-04-09T08:32:14.305Z,79.20
2019-04-09T08:32:47.601Z,79.20
2019-04-09T08:33:40.436Z,79.00
2019-04-09T08:34:34.173Z,79.00
2019-04-09T08:35:09.762Z,79.30
2019-04-09T08:35:52.161Z,79.50
2019-04-09T08:36:47.244Z,79.60
2019-04-09T08:37:26.236Z,79.50
2019-04-09T08:38:18.081Z,79.60
2019-04-09T08:39:08.367Z,80.30
2019-04-09T08:39:50.859Z,79.50
2019-04-09T08:40:36.050Z,79.10
2019-04-09T08:41:28.768Z,78.80
2019-04-09T08:42:05.036Z,78.90
2019-04-09T08:42:41.263Z,78.80
2019-04-09T08:43:20.453Z,78.70
2019-04-09T08:44:01.543Z,78.50
2019-04-09T08:44:37.569Z,78.50
2019-04-09T08:45:21.616Z,78.30
2019-04-09T08:46:00.397Z,77.70
2019-04-09T08:46:55.567Z,77.50
2019-04-09T08:47:41.850Z,77.20
2019-04-09T08:48:32.523Z,77.40
2019-04-09T08:49:09.598Z,77.40
2019-04-09T08:49:55.594Z,76.80
2019-04-09T08:50:32.331Z,76.50
2019-04-09T08:51:23.398Z,76.70
2019-04-09T08:52:02.402Z,76.90
2019-04-09T08:52:53.755Z,76.90
2019-04-09T08:53:30.006Z,76.90
2019-04-09T08:54:06.728Z,76.30
2019-04-09T08:55:00.834Z,76.20
2019-04-09T08:55:45.982Z,76.50
2019-04-09T08:56:39.077Z,76.70
2019-04-09T08:57:15.369Z,76.50
2019-04-09T08:57:54.324Z,77.10
2019-04-09T08:58:37.006Z,77.30
2019-04-09T08:59:32.960Z,77.50
2019-04-09T09:00:13.355Z,77.60
2019-04-09T09:01:27.001Z,77.30